SBOSBO BDA / TXKF
Speedbird OnlineSpeedbird Online BDA / TXKF

L.F. Wade International International Airport
05:27 23.9°C

Location Bermuda, Bermuda
Latitude: 32.36399841308594
Longitude: -64.67870330810547
Web Airport Website | Wikipedia
Altitude 4 Meter / 12 Feet
Distance 5,560 KM / 3,455 Miles
from London.
Time Zone UTC -3 hours (Atlantic/Bermuda)
Codes IATA: BDA
ICAO: TXKF
Currency £1 equals BMD 1.13
Runways
RunwayLength (m)Surface
122958Asphalt
302958Asphalt
Radio
TypeDescriptionFrequency
APPNEW YORK APP119.1
CLDCLNC DEL124.5
CNTRNEW YORK CNTR128.5
CTAFCTAF122.8
GNDGND124.5
TWRTWR118.1
Live ATC
METAR TXKF 060755Z 31002KT 9999 FEW015 24/22 Q1013
TAF TAF TXKF 060531Z 0606/0706 30005KT 9999 FEW016
Weather As Of 06 Oct 2022 05:27
Description Few clouds
Wind 4 km/h from North-West (310°)
Cloud Cover 20%
Precipitation Rain: none, Snow: none
Sunrise 07:15
Sunset 18:57
Lounges Primeclass Lounge, International Terminal
Rotations During the last 90 days there were
53 flights from LHR
52 flights to LHR


© 2017-2022 Speedbird Online